sensor_id;sensor_type;location;lat;lon;timestamp;temperature;humidity
66373;SHT30;53168;51.146;17.120;2024-01-30T00:00:46;2.13;69.20
66373;SHT30;53168;51.146;17.120;2024-01-30T00:03:41;2.12;69.20
66373;SHT30;53168;51.146;17.120;2024-01-30T00:06:17;2.14;69.30
66373;SHT30;53168;51.146;17.120;2024-01-30T00:08:53;2.19;69.32
66373;SHT30;53168;51.146;17.120;2024-01-30T00:11:28;2.21;69.27
66373;SHT30;53168;51.146;17.120;2024-01-30T00:14:03;2.21;69.31
66373;SHT30;53168;51.146;17.120;2024-01-30T00:16:38;2.22;69.31
66373;SHT30;53168;51.146;17.120;2024-01-30T00:19:12;2.23;69.33
66373;SHT30;53168;51.146;17.120;2024-01-30T00:21:46;2.22;69.31
66373;SHT30;53168;51.146;17.120;2024-01-30T00:24:21;2.21;69.40
66373;SHT30;53168;51.146;17.120;2024-01-30T00:40:22;2.23;69.47
66373;SHT30;53168;51.146;17.120;2024-01-30T00:42:57;2.23;69.46
66373;SHT30;53168;51.146;17.120;2024-01-30T00:45:32;2.23;69.49
66373;SHT30;53168;51.146;17.120;2024-01-30T00:48:07;2.20;69.48
66373;SHT30;53168;51.146;17.120;2024-01-30T00:50:42;2.17;69.51
66373;SHT30;53168;51.146;17.120;2024-01-30T00:53:16;2.16;69.57
66373;SHT30;53168;51.146;17.120;2024-01-30T00:55:50;2.16;69.60
66373;SHT30;53168;51.146;17.120;2024-01-30T00:58:24;2.13;69.62
66373;SHT30;53168;51.146;17.120;2024-01-30T01:00:59;2.10;69.74
66373;SHT30;53168;51.146;17.120;2024-01-30T01:03:33;2.09;69.77
66373;SHT30;53168;51.146;17.120;2024-01-30T01:06:08;2.06;69.83
66373;SHT30;53168;51.146;17.120;2024-01-30T01:08:43;2.05;69.81
66373;SHT30;53168;51.146;17.120;2024-01-30T01:11:18;2.02;69.89
66373;SHT30;53168;51.146;17.120;2024-01-30T01:13:52;2.00;69.94
66373;SHT30;53168;51.146;17.120;2024-01-30T01:16:27;1.99;70.00
66373;SHT30;53168;51.146;17.120;2024-01-30T01:19:01;1.98;70.01
66373;SHT30;53168;51.146;17.120;2024-01-30T01:21:36;1.98;70.09
66373;SHT30;53168;51.146;17.120;2024-01-30T01:24:11;1.98;70.04
66373;SHT30;53168;51.146;17.120;2024-01-30T01:26:45;1.95;70.07
66373;SHT30;53168;51.146;17.120;2024-01-30T01:29:19;1.94;70.14
66373;SHT30;53168;51.146;17.120;2024-01-30T01:32:00;1.93;70.19
66373;SHT30;53168;51.146;17.120;2024-01-30T01:34:34;1.93;70.20
66373;SHT30;53168;51.146;17.120;2024-01-30T01:37:09;1.96;70.36
66373;SHT30;53168;51.146;17.120;2024-01-30T01:39:43;2.01;70.40
66373;SHT30;53168;51.146;17.120;2024-01-30T01:42:18;2.06;70.39
66373;SHT30;53168;51.146;17.120;2024-01-30T01:44:53;2.07;70.32
66373;SHT30;53168;51.146;17.120;2024-01-30T01:47:28;2.06;70.28
66373;SHT30;53168;51.146;17.120;2024-01-30T01:50:04;2.03;70.23
66373;SHT30;53168;51.146;17.120;2024-01-30T01:52:42;2.03;70.29
66373;SHT30;53168;51.146;17.120;2024-01-30T01:55:17;2.03;70.30
66373;SHT30;53168;51.146;17.120;2024-01-30T01:57:56;2.04;70.30
66373;SHT30;53168;51.146;17.120;2024-01-30T02:00:32;2.02;70.36
66373;SHT30;53168;51.146;17.120;2024-01-30T02:03:08;2.02;70.39
66373;SHT30;53168;51.146;17.120;2024-01-30T02:05:50;2.02;70.39
66373;SHT30;53168;51.146;17.120;2024-01-30T02:08:25;2.04;70.40
66373;SHT30;53168;51.146;17.120;2024-01-30T02:11:02;2.03;70.40
66373;SHT30;53168;51.146;17.120;2024-01-30T02:13:37;2.00;70.44
66373;SHT30;53168;51.146;17.120;2024-01-30T02:16:13;2.02;70.58
66373;SHT30;53168;51.146;17.120;2024-01-30T02:18:48;2.05;70.60
66373;SHT30;53168;51.146;17.120;2024-01-30T02:21:23;2.07;70.71
66373;SHT30;53168;51.146;17.120;2024-01-30T02:24:00;2.12;70.66
66373;SHT30;53168;51.146;17.120;2024-01-30T02:26:36;2.17;70.70
66373;SHT30;53168;51.146;17.120;2024-01-30T02:29:10;2.24;70.66
66373;SHT30;53168;51.146;17.120;2024-01-30T02:31:44;2.27;70.63
66373;SHT30;53168;51.146;17.120;2024-01-30T02:34:20;2.32;70.71
66373;SHT30;53168;51.146;17.120;2024-01-30T02:36:57;2.35;70.74
66373;SHT30;53168;51.146;17.120;2024-01-30T02:39:31;2.37;70.70
66373;SHT30;53168;51.146;17.120;2024-01-30T02:42:06;2.37;70.69
66373;SHT30;53168;51.146;17.120;2024-01-30T02:44:41;2.37;70.75
66373;SHT30;53168;51.146;17.120;2024-01-30T02:47:15;2.37;70.79
66373;SHT30;53168;51.146;17.120;2024-01-30T02:49:52;2.35;70.78
66373;SHT30;53168;51.146;17.120;2024-01-30T02:52:27;2.33;70.78
66373;SHT30;53168;51.146;17.120;2024-01-30T02:55:02;2.29;70.79
66373;SHT30;53168;51.146;17.120;2024-01-30T02:57:37;2.23;70.77
66373;SHT30;53168;51.146;17.120;2024-01-30T03:00:14;2.17;70.80
66373;SHT30;53168;51.146;17.120;2024-01-30T03:02:49;2.11;70.86
66373;SHT30;53168;51.146;17.120;2024-01-30T03:05:23;2.09;70.99
66373;SHT30;53168;51.146;17.120;2024-01-30T03:07:58;2.10;71.00
66373;SHT30;53168;51.146;17.120;2024-01-30T03:10:33;2.11;71.01
66373;SHT30;53168;51.146;17.120;2024-01-30T03:13:07;2.07;71.00
66373;SHT30;53168;51.146;17.120;2024-01-30T03:15:42;2.03;71.10
66373;SHT30;53168;51.146;17.120;2024-01-30T03:18:16;1.99;71.08
66373;SHT30;53168;51.146;17.120;2024-01-30T03:20:50;1.95;71.10
66373;SHT30;53168;51.146;17.120;2024-01-30T03:23:25;1.89;71.09
66373;SHT30;53168;51.146;17.120;2024-01-30T03:26:17;1.83;71.13
66373;SHT30;53168;51.146;17.120;2024-01-30T03:28:52;1.77;71.23
66373;SHT30;53168;51.146;17.120;2024-01-30T03:31:27;1.72;71.23
66373;SHT30;53168;51.146;17.120;2024-01-30T03:34:02;1.67;71.28
66373;SHT30;53168;51.146;17.120;2024-01-30T03:42:33;1.57;71.57
66373;SHT30;53168;51.146;17.120;2024-01-30T03:45:09;1.59;71.53
66373;SHT30;53168;51.146;17.120;2024-01-30T03:47:46;1.58;71.60
66373;SHT30;53168;51.146;17.120;2024-01-30T03:50:20;1.55;71.60
66373;SHT30;53168;51.146;17.120;2024-01-30T03:52:56;1.51;71.60
66373;SHT30;53168;51.146;17.120;2024-01-30T03:55:30;1.46;71.66
66373;SHT30;53168;51.146;17.120;2024-01-30T03:58:05;1.42;71.78
66373;SHT30;53168;51.146;17.120;2024-01-30T04:00:40;1.40;71.80
66373;SHT30;53168;51.146;17.120;2024-01-30T04:03:15;1.36;71.80
66373;SHT30;53168;51.146;17.120;2024-01-30T04:05:50;1.34;71.87
66373;SHT30;53168;51.146;17.120;2024-01-30T04:08:25;1.35;72.01
66373;SHT30;53168;51.146;17.120;2024-01-30T04:10:59;1.39;71.99
66373;SHT30;53168;51.146;17.120;2024-01-30T04:13:37;1.41;71.96
66373;SHT30;53168;51.146;17.120;2024-01-30T04:16:22;1.40;71.90
66373;SHT30;53168;51.146;17.120;2024-01-30T04:18:57;1.38;71.89
66373;SHT30;53168;51.146;17.120;2024-01-30T04:21:33;1.33;71.92
66373;SHT30;53168;51.146;17.120;2024-01-30T04:24:09;1.34;72.05
66373;SHT30;53168;51.146;17.120;2024-01-30T04:26:43;1.35;72.07
66373;SHT30;53168;51.146;17.120;2024-01-30T04:29:17;1.33;72.00
66373;SHT30;53168;51.146;17.120;2024-01-30T04:31:53;1.30;72.00
66373;SHT30;53168;51.146;17.120;2024-01-30T04:34:28;1.26;72.05
66373;SHT30;53168;51.146;17.120;2024-01-30T04:37:02;1.21;72.05
66373;SHT30;53168;51.146;17.120;2024-01-30T04:39:37;1.18;72.12
66373;SHT30;53168;51.146;17.120;2024-01-30T04:42:14;1.15;72.19
66373;SHT30;53168;51.146;17.120;2024-01-30T04:44:49;1.15;72.29
66373;SHT30;53168;51.146;17.120;2024-01-30T04:47:24;1.14;72.27
66373;SHT30;53168;51.146;17.120;2024-01-30T04:49:58;1.17;72.33
66373;SHT30;53168;51.146;17.120;2024-01-30T04:52:34;1.19;72.28
66373;SHT30;53168;51.146;17.120;2024-01-30T04:55:09;1.18;72.20
66373;SHT30;53168;51.146;17.120;2024-01-30T04:57:44;1.17;72.28
66373;SHT30;53168;51.146;17.120;2024-01-30T05:00:19;1.18;72.27
66373;SHT30;53168;51.146;17.120;2024-01-30T05:02:54;1.16;72.21
66373;SHT30;53168;51.146;17.120;2024-01-30T05:05:28;1.15;72.26
66373;SHT30;53168;51.146;17.120;2024-01-30T05:08:04;1.13;72.21
66373;SHT30;53168;51.146;17.120;2024-01-30T05:22:08;1.26;72.44
66373;SHT30;53168;51.146;17.120;2024-01-30T05:24:39;1.31;72.41
66373;SHT30;53168;51.146;17.120;2024-01-30T05:27:09;1.32;72.36
66373;SHT30;53168;51.146;17.120;2024-01-30T05:29:41;1.30;72.31
66373;SHT30;53168;51.146;17.120;2024-01-30T05:32:12;1.26;72.32
66373;SHT30;53168;51.146;17.120;2024-01-30T05:34:42;1.25;72.37
66373;SHT30;53168;51.146;17.120;2024-01-30T05:37:15;1.24;72.38
66373;SHT30;53168;51.146;17.120;2024-01-30T05:39:46;1.22;72.39
66373;SHT30;53168;51.146;17.120;2024-01-30T05:42:17;1.23;72.44
66373;SHT30;53168;51.146;17.120;2024-01-30T05:44:47;1.20;72.34
66373;SHT30;53168;51.146;17.120;2024-01-30T05:47:18;1.15;72.37
66373;SHT30;53168;51.146;17.120;2024-01-30T05:49:48;1.13;72.42
66373;SHT30;53168;51.146;17.120;2024-01-30T05:52:19;1.13;72.47
66373;SHT30;53168;51.146;17.120;2024-01-30T05:54:49;1.12;72.52
66373;SHT30;53168;51.146;17.120;2024-01-30T05:57:20;1.14;72.58
66373;SHT30;53168;51.146;17.120;2024-01-30T05:59:50;1.14;72.56
66373;SHT30;53168;51.146;17.120;2024-01-30T06:02:21;1.12;72.54
66373;SHT30;53168;51.146;17.120;2024-01-30T06:04:51;1.10;72.63
66373;SHT30;53168;51.146;17.120;2024-01-30T06:07:22;1.08;72.68
66373;SHT30;53168;51.146;17.120;2024-01-30T06:09:52;1.10;72.76
66373;SHT30;53168;51.146;17.120;2024-01-30T06:12:23;1.13;72.80
66373;SHT30;53168;51.146;17.120;2024-01-30T06:14:55;1.13;72.80
66373;SHT30;53168;51.146;17.120;2024-01-30T06:17:27;1.13;72.79
66373;SHT30;53168;51.146;17.120;2024-01-30T06:19:58;1.14;72.83
66373;SHT30;53168;51.146;17.120;2024-01-30T06:22:29;1.16;72.84
66373;SHT30;53168;51.146;17.120;2024-01-30T06:25:00;1.17;72.83
66373;SHT30;53168;51.146;17.120;2024-01-30T06:27:31;1.21;72.80
66373;SHT30;53168;51.146;17.120;2024-01-30T06:30:02;1.23;72.85
66373;SHT30;53168;51.146;17.120;2024-01-30T06:32:36;1.23;72.79
66373;SHT30;53168;51.146;17.120;2024-01-30T06:35:08;1.23;72.79
66373;SHT30;53168;51.146;17.120;2024-01-30T06:37:39;1.23;72.79
66373;SHT30;53168;51.146;17.120;2024-01-30T06:40:11;1.23;72.80
66373;SHT30;53168;51.146;17.120;2024-01-30T06:42:42;1.23;72.77
66373;SHT30;53168;51.146;17.120;2024-01-30T06:45:12;1.23;72.81
66373;SHT30;53168;51.146;17.120;2024-01-30T06:47:43;1.24;72.85
66373;SHT30;53168;51.146;17.120;2024-01-30T06:50:14;1.27;72.84
66373;SHT30;53168;51.146;17.120;2024-01-30T06:52:45;1.32;72.87
66373;SHT30;53168;51.146;17.120;2024-01-30T06:55:15;1.37;72.86
66373;SHT30;53168;51.146;17.120;2024-01-30T06:57:46;1.44;72.80
66373;SHT30;53168;51.146;17.120;2024-01-30T07:00:20;1.50;72.76
66373;SHT30;53168;51.146;17.120;2024-01-30T07:02:51;1.51;72.67
66373;SHT30;53168;51.146;17.120;2024-01-30T07:05:22;1.52;72.69
66373;SHT30;53168;51.146;17.120;2024-01-30T07:07:52;1.54;72.70
66373;SHT30;53168;51.146;17.120;2024-01-30T07:10:23;1.60;72.70
66373;SHT30;53168;51.146;17.120;2024-01-30T07:12:54;1.68;72.70
66373;SHT30;53168;51.146;17.120;2024-01-30T07:15:25;1.77;72.65
66373;SHT30;53168;51.146;17.120;2024-01-30T07:17:55;1.86;72.55
66373;SHT30;53168;51.146;17.120;2024-01-30T07:20:27;1.96;72.46
66373;SHT30;53168;51.146;17.120;2024-01-30T07:22:59;2.08;72.32
66373;SHT30;53168;51.146;17.120;2024-01-30T07:25:30;2.17;72.16
66373;SHT30;53168;51.146;17.120;2024-01-30T07:28:05;2.27;72.04
66373;SHT30;53168;51.146;17.120;2024-01-30T07:30:36;2.36;71.95
66373;SHT30;53168;51.146;17.120;2024-01-30T07:33:08;2.44;71.78
66373;SHT30;53168;51.146;17.120;2024-01-30T07:35:39;2.52;71.66
66373;SHT30;53168;51.146;17.120;2024-01-30T07:38:10;2.59;71.60
66373;SHT30;53168;51.146;17.120;2024-01-30T07:40:41;2.66;71.53
66373;SHT30;53168;51.146;17.120;2024-01-30T07:43:12;2.73;71.45
66373;SHT30;53168;51.146;17.120;2024-01-30T07:45:43;2.81;71.40
66373;SHT30;53168;51.146;17.120;2024-01-30T07:48:14;2.90;71.32
66373;SHT30;53168;51.146;17.120;2024-01-30T07:50:45;2.98;71.17
66373;SHT30;53168;51.146;17.120;2024-01-30T07:53:15;3.06;71.09
66373;SHT30;53168;51.146;17.120;2024-01-30T07:55:46;3.15;71.00
66373;SHT30;53168;51.146;17.120;2024-01-30T07:58:16;3.25;70.90
66373;SHT30;53168;51.146;17.120;2024-01-30T08:00:47;3.35;70.81
66373;SHT30;53168;51.146;17.120;2024-01-30T08:03:20;3.44;70.75
66373;SHT30;53168;51.146;17.120;2024-01-30T08:05:50;3.54;70.66
66373;SHT30;53168;51.146;17.120;2024-01-30T08:08:21;3.65;70.52
66373;SHT30;53168;51.146;17.120;2024-01-30T08:10:52;3.76;70.40
66373;SHT30;53168;51.146;17.120;2024-01-30T08:13:22;3.86;70.30
66373;SHT30;53168;51.146;17.120;2024-01-30T08:15:54;3.97;70.13
66373;SHT30;53168;51.146;17.120;2024-01-30T08:18:24;4.11;69.87
66373;SHT30;53168;51.146;17.120;2024-01-30T08:20:56;4.22;69.59
66373;SHT30;53168;51.146;17.120;2024-01-30T08:23:27;4.35;69.49
66373;SHT30;53168;51.146;17.120;2024-01-30T08:25:57;4.47;69.33
66373;SHT30;53168;51.146;17.120;2024-01-30T08:28:28;4.59;69.21
66373;SHT30;53168;51.146;17.120;2024-01-30T08:31:00;4.71;68.95
66373;SHT30;53168;51.146;17.120;2024-01-30T08:33:34;4.84;68.85
66373;SHT30;53168;51.146;17.120;2024-01-30T08:36:08;4.96;68.61
66373;SHT30;53168;51.146;17.120;2024-01-30T08:38:38;5.08;68.54
66373;SHT30;53168;51.146;17.120;2024-01-30T08:41:11;5.23;68.40
66373;SHT30;53168;51.146;17.120;2024-01-30T08:43:42;5.36;68.23
66373;SHT30;53168;51.146;17.120;2024-01-30T08:46:16;5.47;67.93
66373;SHT30;53168;51.146;17.120;2024-01-30T08:48:48;5.59;67.72
66373;SHT30;53168;51.146;17.120;2024-01-30T08:51:21;5.70;67.61
66373;SHT30;53168;51.146;17.120;2024-01-30T08:53:52;5.81;67.44
66373;SHT30;53168;51.146;17.120;2024-01-30T08:56:25;5.93;67.16
66373;SHT30;53168;51.146;17.120;2024-01-30T09:00:23;6.13;67.00
66373;SHT30;53168;51.146;17.120;2024-01-30T09:02:58;6.26;66.87
66373;SHT30;53168;51.146;17.120;2024-01-30T09:05:34;6.38;66.63
66373;SHT30;53168;51.146;17.120;2024-01-30T09:08:11;6.50;66.25
66373;SHT30;53168;51.146;17.120;2024-01-30T09:10:46;6.63;65.98
66373;SHT30;53168;51.146;17.120;2024-01-30T09:13:22;6.73;65.36
66373;SHT30;53168;51.146;17.120;2024-01-30T09:15:57;6.85;65.37
66373;SHT30;53168;51.146;17.120;2024-01-30T09:18:33;6.98;65.36
66373;SHT30;53168;51.146;17.120;2024-01-30T09:21:14;7.11;65.07
66373;SHT30;53168;51.146;17.120;2024-01-30T09:23:48;7.23;64.58
66373;SHT30;53168;51.146;17.120;2024-01-30T09:26:23;7.34;64.60
66373;SHT30;53168;51.146;17.120;2024-01-30T09:29:00;7.47;64.26
66373;SHT30;53168;51.146;17.120;2024-01-30T09:31:35;7.56;63.91
66373;SHT30;53168;51.146;17.120;2024-01-30T09:34:11;7.66;63.41
66373;SHT30;53168;51.146;17.120;2024-01-30T09:36:47;7.75;63.39
66373;SHT30;53168;51.146;17.120;2024-01-30T09:39:21;7.86;63.09
66373;SHT30;53168;51.146;17.120;2024-01-30T09:42:05;7.95;62.56
66373;SHT30;53168;51.146;17.120;2024-01-30T09:44:54;8.03;61.98
66373;SHT30;53168;51.146;17.120;2024-01-30T09:47:41;8.10;61.44
66373;SHT30;53168;51.146;17.120;2024-01-30T09:50:18;8.18;61.47
66373;SHT30;53168;51.146;17.120;2024-01-30T09:52:56;8.28;61.37
66373;SHT30;53168;51.146;17.120;2024-01-30T09:55:34;8.39;61.29
66373;SHT30;53168;51.146;17.120;2024-01-30T09:58:11;8.48;60.92
66373;SHT30;53168;51.146;17.120;2024-01-30T10:00:46;8.55;60.15
66373;SHT30;53168;51.146;17.120;2024-01-30T10:03:21;8.64;59.84
66373;SHT30;53168;51.146;17.120;2024-01-30T10:05:57;8.72;60.14
66373;SHT30;53168;51.146;17.120;2024-01-30T10:08:33;8.82;60.43
66373;SHT30;53168;51.146;17.120;2024-01-30T10:11:08;8.91;59.71
66373;SHT30;53168;51.146;17.120;2024-01-30T10:13:45;8.99;59.97
66373;SHT30;53168;51.146;17.120;2024-01-30T10:16:20;9.07;59.39
66373;SHT30;53168;51.146;17.120;2024-01-30T10:18:56;9.17;59.27
66373;SHT30;53168;51.146;17.120;2024-01-30T10:21:31;9.29;59.58
66373;SHT30;53168;51.146;17.120;2024-01-30T10:24:06;9.42;59.15
66373;SHT30;53168;51.146;17.120;2024-01-30T10:26:46;9.50;58.51
66373;SHT30;53168;51.146;17.120;2024-01-30T10:29:20;9.53;58.46
66373;SHT30;53168;51.146;17.120;2024-01-30T10:32:03;9.59;58.16
66373;SHT30;53168;51.146;17.120;2024-01-30T10:34:38;9.63;57.13
66373;SHT30;53168;51.146;17.120;2024-01-30T10:37:14;9.67;57.28
66373;SHT30;53168;51.146;17.120;2024-01-30T10:39:55;9.64;57.34
66373;SHT30;53168;51.146;17.120;2024-01-30T10:42:35;9.52;57.02
66373;SHT30;53168;51.146;17.120;2024-01-30T10:45:14;9.43;57.66
66373;SHT30;53168;51.146;17.120;2024-01-30T10:47:52;9.39;57.32
66373;SHT30;53168;51.146;17.120;2024-01-30T10:50:31;9.38;56.71
66373;SHT30;53168;51.146;17.120;2024-01-30T10:53:19;9.37;56.46
66373;SHT30;53168;51.146;17.120;2024-01-30T10:55:56;9.42;56.20
66373;SHT30;53168;51.146;17.120;2024-01-30T10:58:32;9.58;56.54
66373;SHT30;53168;51.146;17.120;2024-01-30T11:01:10;9.78;55.78
66373;SHT30;53168;51.146;17.120;2024-01-30T11:03:47;9.97;55.46
66373;SHT30;53168;51.146;17.120;2024-01-30T11:09:39;10.34;55.17
66373;SHT30;53168;51.146;17.120;2024-01-30T11:12:30;10.43;54.69
66373;SHT30;53168;51.146;17.120;2024-01-30T11:15:11;10.40;54.66
66373;SHT30;53168;51.146;17.120;2024-01-30T11:17:52;10.34;54.04
66373;SHT30;53168;51.146;17.120;2024-01-30T11:20:29;10.27;54.39
66373;SHT30;53168;51.146;17.120;2024-01-30T11:23:07;10.32;54.41
66373;SHT30;53168;51.146;17.120;2024-01-30T11:25:45;10.44;54.68
66373;SHT30;53168;51.146;17.120;2024-01-30T11:28:23;10.56;54.44
66373;SHT30;53168;51.146;17.120;2024-01-30T11:31:06;10.68;54.25
66373;SHT30;53168;51.146;17.120;2024-01-30T11:33:56;10.77;53.84
66373;SHT30;53168;51.146;17.120;2024-01-30T11:36:33;10.87;53.26
66373;SHT30;53168;51.146;17.120;2024-01-30T11:39:11;11.04;53.52
66373;SHT30;53168;51.146;17.120;2024-01-30T11:41:47;11.22;53.46
66373;SHT30;53168;51.146;17.120;2024-01-30T11:44:24;11.44;53.12
66373;SHT30;53168;51.146;17.120;2024-01-30T11:46:59;11.62;52.40
66373;SHT30;53168;51.146;17.120;2024-01-30T11:49:35;11.76;51.87
66373;SHT30;53168;51.146;17.120;2024-01-30T11:52:10;11.87;51.81
66373;SHT30;53168;51.146;17.120;2024-01-30T11:54:46;12.29;50.91
66373;SHT30;53168;51.146;17.120;2024-01-30T11:57:20;12.92;49.54
66373;SHT30;53168;51.146;17.120;2024-01-30T11:59:57;13.39;48.97
66373;SHT30;53168;51.146;17.120;2024-01-30T12:02:34;13.72;48.10
66373;SHT30;53168;51.146;17.120;2024-01-30T12:05:10;13.85;47.61
66373;SHT30;53168;51.146;17.120;2024-01-30T12:07:47;13.82;46.93
66373;SHT30;53168;51.146;17.120;2024-01-30T12:10:22;14.06;46.87
66373;SHT30;53168;51.146;17.120;2024-01-30T12:13:00;14.35;46.68
66373;SHT30;53168;51.146;17.120;2024-01-30T12:15:38;14.46;47.14
66373;SHT30;53168;51.146;17.120;2024-01-30T12:18:13;14.62;46.67
66373;SHT30;53168;51.146;17.120;2024-01-30T12:21:00;14.62;46.28
66373;SHT30;53168;51.146;17.120;2024-01-30T12:23:36;14.69;45.96
66373;SHT30;53168;51.146;17.120;2024-01-30T12:26:13;14.84;46.07
66373;SHT30;53168;51.146;17.120;2024-01-30T12:28:53;14.66;45.78
66373;SHT30;53168;51.146;17.120;2024-01-30T12:31:33;14.56;45.75
66373;SHT30;53168;51.146;17.120;2024-01-30T12:34:07;14.78;45.48
66373;SHT30;53168;51.146;17.120;2024-01-30T12:36:42;15.11;44.92
66373;SHT30;53168;51.146;17.120;2024-01-30T12:39:17;15.51;44.88
66373;SHT30;53168;51.146;17.120;2024-01-30T12:41:53;15.80;44.51
66373;SHT30;53168;51.146;17.120;2024-01-30T12:44:28;15.62;44.14
66373;SHT30;53168;51.146;17.120;2024-01-30T12:47:06;15.02;45.31
66373;SHT30;53168;51.146;17.120;2024-01-30T12:49:43;14.49;45.23
66373;SHT30;53168;51.146;17.120;2024-01-30T12:52:18;14.10;45.42
66373;SHT30;53168;51.146;17.120;2024-01-30T12:54:54;14.07;45.48
66373;SHT30;53168;51.146;17.120;2024-01-30T12:57:29;14.15;45.42
66373;SHT30;53168;51.146;17.120;2024-01-30T13:00:05;14.20;44.58
66373;SHT30;53168;51.146;17.120;2024-01-30T13:02:40;13.99;44.51
66373;SHT30;53168;51.146;17.120;2024-01-30T13:05:20;13.71;45.09
66373;SHT30;53168;51.146;17.120;2024-01-30T13:07:56;13.42;45.39
66373;SHT30;53168;51.146;17.120;2024-01-30T13:10:34;13.16;45.80
66373;SHT30;53168;51.146;17.120;2024-01-30T13:13:15;12.91;46.21
66373;SHT30;53168;51.146;17.120;2024-01-30T13:15:51;12.62;46.28
66373;SHT30;53168;51.146;17.120;2024-01-30T13:18:26;12.39;46.35
66373;SHT30;53168;51.146;17.120;2024-01-30T13:21:01;12.20;46.74
66373;SHT30;53168;51.146;17.120;2024-01-30T13:23:35;12.03;46.60
66373;SHT30;53168;51.146;17.120;2024-01-30T13:26:09;11.86;46.94
66373;SHT30;53168;51.146;17.120;2024-01-30T13:28:47;11.73;47.53
66373;SHT30;53168;51.146;17.120;2024-01-30T13:31:21;11.60;47.51
66373;SHT30;53168;51.146;17.120;2024-01-30T13:33:57;11.44;47.57
66373;SHT30;53168;51.146;17.120;2024-01-30T13:36:34;11.28;47.75
66373;SHT30;53168;51.146;17.120;2024-01-30T13:39:09;11.12;48.06
66373;SHT30;53168;51.146;17.120;2024-01-30T13:41:49;10.98;48.14
66373;SHT30;53168;51.146;17.120;2024-01-30T13:44:23;10.82;48.33
66373;SHT30;53168;51.146;17.120;2024-01-30T13:46:59;10.69;48.52
66373;SHT30;53168;51.146;17.120;2024-01-30T13:49:34;10.58;48.71
66373;SHT30;53168;51.146;17.120;2024-01-30T13:52:09;10.49;48.84
66373;SHT30;53168;51.146;17.120;2024-01-30T13:54:45;10.42;48.91
66373;SHT30;53168;51.146;17.120;2024-01-30T13:57:20;10.39;48.98
66373;SHT30;53168;51.146;17.120;2024-01-30T14:21:46;10.84;48.41
66373;SHT30;53168;51.146;17.120;2024-01-30T14:24:23;10.65;48.69
66373;SHT30;53168;51.146;17.120;2024-01-30T14:26:57;10.47;48.91
66373;SHT30;53168;51.146;17.120;2024-01-30T14:29:32;10.29;49.05
66373;SHT30;53168;51.146;17.120;2024-01-30T14:32:08;10.11;49.43
66373;SHT30;53168;51.146;17.120;2024-01-30T14:34:43;9.94;49.59
66373;SHT30;53168;51.146;17.120;2024-01-30T14:37:21;9.77;49.88
66373;SHT30;53168;51.146;17.120;2024-01-30T14:39:56;9.63;50.04
66373;SHT30;53168;51.146;17.120;2024-01-30T14:42:31;9.49;50.25
66373;SHT30;53168;51.146;17.120;2024-01-30T14:45:10;9.36;50.52
66373;SHT30;53168;51.146;17.120;2024-01-30T14:47:45;9.23;50.69
66373;SHT30;53168;51.146;17.120;2024-01-30T14:50:24;9.14;50.88
66373;SHT30;53168;51.146;17.120;2024-01-30T14:52:59;9.06;51.10
66373;SHT30;53168;51.146;17.120;2024-01-30T14:55:34;8.97;51.33
66373;SHT30;53168;51.146;17.120;2024-01-30T14:58:12;8.85;51.50
66373;SHT30;53168;51.146;17.120;2024-01-30T15:00:46;8.75;51.63
66373;SHT30;53168;51.146;17.120;2024-01-30T15:03:21;8.65;51.86
66373;SHT30;53168;51.146;17.120;2024-01-30T15:05:59;8.54;52.07
66373;SHT30;53168;51.146;17.120;2024-01-30T15:08:36;8.43;52.21
66373;SHT30;53168;51.146;17.120;2024-01-30T15:11:11;8.33;52.41
66373;SHT30;53168;51.146;17.120;2024-01-30T15:13:47;8.22;52.58
66373;SHT30;53168;51.146;17.120;2024-01-30T15:16:23;8.13;52.86
66373;SHT30;53168;51.146;17.120;2024-01-30T15:19:00;8.02;53.03
66373;SHT30;53168;51.146;17.120;2024-01-30T15:21:37;7.92;53.28
66373;SHT30;53168;51.146;17.120;2024-01-30T15:24:11;7.82;53.46
66373;SHT30;53168;51.146;17.120;2024-01-30T15:26:48;7.72;53.66
66373;SHT30;53168;51.146;17.120;2024-01-30T15:29:26;7.62;53.88
66373;SHT30;53168;51.146;17.120;2024-01-30T15:32:01;7.52;54.03
66373;SHT30;53168;51.146;17.120;2024-01-30T15:34:38;7.41;54.21
66373;SHT30;53168;51.146;17.120;2024-01-30T15:37:16;7.32;54.56
66373;SHT30;53168;51.146;17.120;2024-01-30T15:39:55;7.24;54.66
66373;SHT30;53168;51.146;17.120;2024-01-30T15:42:30;7.15;54.77
66373;SHT30;53168;51.146;17.120;2024-01-30T15:45:06;7.07;55.06
66373;SHT30;53168;51.146;17.120;2024-01-30T15:47:50;6.98;55.25
66373;SHT30;53168;51.146;17.120;2024-01-30T15:50:31;6.90;55.46
66373;SHT30;53168;51.146;17.120;2024-01-30T15:53:33;6.82;55.66
66373;SHT30;53168;51.146;17.120;2024-01-30T15:56:12;6.75;55.89
66373;SHT30;53168;51.146;17.120;2024-01-30T15:58:51;6.69;56.13
66373;SHT30;53168;51.146;17.120;2024-01-30T16:01:29;6.62;56.25
66373;SHT30;53168;51.146;17.120;2024-01-30T16:04:28;6.56;56.40
66373;SHT30;53168;51.146;17.120;2024-01-30T16:07:05;6.50;56.73
66373;SHT30;53168;51.146;17.120;2024-01-30T16:09:42;6.46;56.80
66373;SHT30;53168;51.146;17.120;2024-01-30T16:12:18;6.41;57.02
66373;SHT30;53168;51.146;17.120;2024-01-30T16:14:57;6.34;57.09
66373;SHT30;53168;51.146;17.120;2024-01-30T16:17:48;6.30;57.36
66373;SHT30;53168;51.146;17.120;2024-01-30T16:20:30;6.26;57.52
66373;SHT30;53168;51.146;17.120;2024-01-30T16:23:09;6.24;57.60
66373;SHT30;53168;51.146;17.120;2024-01-30T16:25:47;6.21;57.74
66373;SHT30;53168;51.146;17.120;2024-01-30T16:28:27;6.17;57.76
66373;SHT30;53168;51.146;17.120;2024-01-30T16:31:05;6.10;57.78
66373;SHT30;53168;51.146;17.120;2024-01-30T16:33:41;6.05;57.95
66373;SHT30;53168;51.146;17.120;2024-01-30T16:36:18;5.99;58.03
66373;SHT30;53168;51.146;17.120;2024-01-30T16:38:56;5.95;58.20
66373;SHT30;53168;51.146;17.120;2024-01-30T16:41:34;5.89;58.40
66373;SHT30;53168;51.146;17.120;2024-01-30T16:44:09;5.87;58.51
66373;SHT30;53168;51.146;17.120;2024-01-30T16:46:49;5.85;58.63
66373;SHT30;53168;51.146;17.120;2024-01-30T16:49:25;5.84;58.79
66373;SHT30;53168;51.146;17.120;2024-01-30T16:52:05;5.83;58.81
66373;SHT30;53168;51.146;17.120;2024-01-30T16:54:41;5.84;58.98
66373;SHT30;53168;51.146;17.120;2024-01-30T16:57:17;5.85;59.07
66373;SHT30;53168;51.146;17.120;2024-01-30T16:59:55;5.88;58.98
66373;SHT30;53168;51.146;17.120;2024-01-30T17:02:40;5.87;59.04
66373;SHT30;53168;51.146;17.120;2024-01-30T17:05:16;5.87;59.13
66373;SHT30;53168;51.146;17.120;2024-01-30T17:07:58;5.83;59.15
66373;SHT30;53168;51.146;17.120;2024-01-30T17:10:36;5.82;59.37
66373;SHT30;53168;51.146;17.120;2024-01-30T17:13:11;5.81;59.18
66373;SHT30;53168;51.146;17.120;2024-01-30T17:15:47;5.76;59.26